createdAt,value
2023-03-04T00:02:23.616Z,94928.85
2023-03-04T00:04:49.943Z,94927.11
2023-03-04T00:07:16.340Z,94922.98
2023-03-04T00:09:42.678Z,94920.41
2023-03-04T00:12:09.060Z,94921.70
2023-03-04T00:14:35.418Z,94915.77
2023-03-04T00:17:01.781Z,94919.13
2023-03-04T00:19:28.126Z,94916.55
2023-03-04T00:21:54.508Z,94915.27
2023-03-04T00:24:20.846Z,94914.94
2023-03-04T00:26:47.238Z,94915.40
2023-03-04T00:29:16.766Z,94910.26
2023-03-04T00:31:43.187Z,94912.70
2023-03-04T00:34:09.498Z,94909.43
2023-03-04T00:36:35.882Z,94911.18
2023-03-04T00:39:02.222Z,94910.72
2023-03-04T00:41:28.608Z,94908.14
2023-03-04T00:43:54.955Z,94911.64
2023-03-04T00:46:21.384Z,94911.31
2023-03-04T00:48:47.684Z,94914.22
2023-03-04T00:51:14.090Z,94909.07
2023-03-04T00:53:40.424Z,94914.67
2023-03-04T00:56:06.813Z,94907.09
2023-03-04T00:58:33.155Z,94904.06
2023-03-04T01:00:59.590Z,94900.66
2023-03-04T01:03:25.883Z,94904.06
2023-03-04T01:05:52.273Z,94906.96
2023-03-04T01:08:18.637Z,94900.66
2023-03-04T01:10:45.004Z,94902.41
2023-03-04T01:13:11.348Z,94899.02
2023-03-04T01:15:37.737Z,94903.34
2023-03-04T01:18:04.134Z,94896.44
2023-03-04T01:20:30.509Z,94894.47
2023-03-04T01:22:56.886Z,94889.69
2023-03-04T01:25:23.274Z,94887.91
2023-03-04T01:27:49.616Z,94887.58
2023-03-04T01:30:16.001Z,94881.25
2023-03-04T01:32:42.396Z,94879.03
2023-03-04T01:35:08.796Z,94878.81
2023-03-04T01:37:36.365Z,94876.47
2023-03-04T01:40:01.523Z,94875.64
2023-03-04T01:42:27.865Z,94872.24
2023-03-04T01:44:54.261Z,94870.14
2023-03-04T01:47:20.600Z,94869.67
2023-03-04T01:49:46.990Z,94870.59
2023-03-04T01:52:13.359Z,94862.42
2023-03-04T01:54:39.771Z,94864.66
2023-03-04T01:57:06.103Z,94870.27
2023-03-04T01:59:32.484Z,94870.14
2023-03-04T02:01:58.842Z,94855.30
2023-03-04T02:04:25.382Z,94859.16
2023-03-04T02:06:51.640Z,94864.30
2023-03-04T02:09:19.680Z,94861.27
2023-03-04T02:11:44.372Z,94859.16
2023-03-04T02:14:10.769Z,94854.48
2023-03-04T02:16:37.106Z,94859.26
2023-03-04T02:19:03.483Z,94863.02
2023-03-04T02:21:29.816Z,94863.94
2023-03-04T02:23:56.208Z,94855.89
2023-03-04T02:26:22.552Z,94853.78
2023-03-04T02:28:48.951Z,94858.11
2023-03-04T02:31:15.314Z,94856.69
2023-03-04T02:33:41.663Z,94852.03
2023-03-04T02:36:08.006Z,94852.96
2023-03-04T02:38:34.397Z,94844.42
2023-03-04T02:41:00.772Z,94856.00
2023-03-04T02:43:27.160Z,94844.42
2023-03-04T02:45:53.534Z,94848.97
2023-03-04T02:48:19.926Z,94844.06
2023-03-04T02:50:47.345Z,94842.78
2023-03-04T02:53:12.699Z,94843.14
2023-03-04T02:55:39.070Z,94841.03
2023-03-04T02:58:05.474Z,94848.87
2023-03-04T03:00:31.843Z,94845.84
2023-03-04T03:02:58.310Z,94842.91
2023-03-04T03:05:24.560Z,94845.02
2023-03-04T03:07:50.977Z,94844.56
2023-03-04T03:10:17.305Z,94845.02
2023-03-04T03:12:43.787Z,94845.48
2023-03-04T03:15:10.130Z,94841.27
2023-03-04T03:17:36.513Z,94839.52
2023-03-04T03:20:02.849Z,94842.09
2023-03-04T03:22:29.233Z,94844.30
2023-03-04T03:24:55.572Z,94841.72
2023-03-04T03:27:21.965Z,94850.27
2023-03-04T03:29:48.311Z,94841.39
2023-03-04T03:32:14.772Z,94833.55
2023-03-04T03:34:41.041Z,94837.41
2023-03-04T03:37:07.448Z,94837.05
2023-03-04T03:39:33.792Z,94830.75
2023-03-04T03:42:00.198Z,94829.47
2023-03-04T03:44:26.537Z,94832.03
2023-03-04T03:46:52.933Z,94830.16
2023-03-04T03:49:19.268Z,94831.58
2023-03-04T03:51:45.648Z,94828.88
2023-03-04T03:54:11.998Z,94830.16
2023-03-04T03:56:38.377Z,94824.19
2023-03-04T03:59:04.721Z,94826.30
2023-03-04T04:01:31.114Z,94826.77
2023-03-04T04:03:57.456Z,94825.48
2023-03-04T04:06:23.834Z,94822.44
2023-03-04T04:08:51.410Z,94817.77
2023-03-04T04:11:16.531Z,94823.04
2023-03-04T04:13:42.942Z,94824.19
2023-03-04T04:16:09.309Z,94822.58
2023-03-04T04:18:35.661Z,94824.33
2023-03-04T04:21:02.002Z,94826.07
2023-03-04T04:23:28.411Z,94824.78
2023-03-04T04:25:54.746Z,94823.04
2023-03-04T04:28:21.132Z,94815.09
2023-03-04T04:30:47.542Z,94821.06
2023-03-04T04:33:13.865Z,94818.48
2023-03-04T04:35:40.215Z,94821.06
2023-03-04T04:38:06.597Z,94824.42
2023-03-04T04:40:32.957Z,94822.67
2023-03-04T04:42:59.333Z,94820.93
2023-03-04T04:45:25.688Z,94821.06
2023-03-04T04:47:52.070Z,94818.13
2023-03-04T04:50:18.413Z,94819.41
2023-03-04T04:52:44.802Z,94819.88
2023-03-04T04:55:11.145Z,94823.73
2023-03-04T04:57:37.547Z,94821.16
2023-03-04T05:00:03.897Z,94822.05
2023-03-04T05:02:30.274Z,94836.13
2023-03-04T05:04:56.615Z,94823.80
2023-03-04T05:07:23.003Z,94823.80
2023-03-04T05:09:49.340Z,94829.44
2023-03-04T05:12:15.732Z,94830.72
2023-03-04T05:14:42.097Z,94840.87
2023-03-04T05:17:08.466Z,94839.22
2023-03-04T05:19:34.810Z,94840.05
2023-03-04T05:22:01.198Z,94836.66
2023-03-04T05:24:27.533Z,94846.94
2023-03-04T05:26:53.933Z,94844.50
2023-03-04T05:29:20.293Z,94850.80
2023-03-04T05:31:48.359Z,94855.14
2023-03-04T05:34:13.002Z,94860.28
2023-03-04T05:36:39.393Z,94859.09
2023-03-04T05:39:05.724Z,94862.36
2023-03-04T05:41:32.134Z,94867.17
2023-03-04T05:43:59.422Z,94865.89
2023-03-04T05:46:24.867Z,94865.06
2023-03-04T05:48:51.200Z,94862.86
2023-03-04T05:51:17.587Z,94863.78
2023-03-04T05:53:43.962Z,94868.09
2023-03-04T05:56:10.346Z,94865.98
2023-03-04T05:58:36.705Z,94868.09
2023-03-04T06:01:03.057Z,94872.31
2023-03-04T06:03:29.460Z,94870.67
2023-03-04T06:05:55.789Z,94867.17
2023-03-04T06:08:22.125Z,94873.83
2023-03-04T06:10:48.538Z,94876.40
2023-03-04T06:13:14.869Z,94873.83
2023-03-04T06:15:41.300Z,94875.58
2023-03-04T06:18:07.654Z,94877.78
2023-03-04T06:20:34.040Z,94881.87
2023-03-04T06:23:00.392Z,94878.73
2023-03-04T06:25:26.762Z,94880.22
2023-03-04T06:27:55.093Z,94889.70
2023-03-04T06:30:19.557Z,94877.78
2023-03-04T06:32:45.882Z,94882.33
2023-03-04T06:35:12.273Z,94880.35
2023-03-04T06:37:38.663Z,94887.37
2023-03-04T06:40:05.043Z,94889.34
2023-03-04T06:42:31.411Z,94891.00
2023-03-04T06:44:57.806Z,94889.80
2023-03-04T06:47:24.149Z,94897.16
2023-03-04T06:49:50.542Z,94899.73
2023-03-04T06:52:16.877Z,94872.72
2023-03-04T06:54:43.274Z,94907.11
2023-03-04T06:57:09.619Z,94903.12
2023-03-04T06:59:36.003Z,94903.81
2023-03-04T07:02:02.345Z,94902.98
2023-03-04T07:04:28.772Z,94899.39
2023-03-04T07:06:55.074Z,94899.95
2023-03-04T07:09:21.456Z,94900.78
2023-03-04T07:11:48.818Z,94907.33
2023-03-04T07:14:14.177Z,94913.27
2023-03-04T07:16:40.535Z,94913.86
2023-03-04T07:19:06.896Z,94916.78
2023-03-04T07:21:33.251Z,94919.00
2023-03-04T07:23:59.662Z,94917.70
2023-03-04T07:26:26.048Z,94915.96
2023-03-04T07:28:52.422Z,94920.73
2023-03-04T07:31:18.796Z,94918.63
2023-03-04T07:33:45.154Z,94918.30
2023-03-04T07:36:11.496Z,94915.73
2023-03-04T07:38:37.876Z,94918.17
2023-03-04T07:41:04.253Z,94910.92
2023-03-04T07:43:30.601Z,94916.06
2023-03-04T07:45:56.973Z,94915.27
2023-03-04T07:48:23.323Z,94919.13
2023-03-04T07:50:49.706Z,94915.73
2023-03-04T07:53:16.044Z,94913.16
2023-03-04T07:55:42.446Z,94908.11
2023-03-04T07:58:08.873Z,94908.94
2023-03-04T08:00:35.213Z,94907.06
2023-03-04T08:03:01.597Z,94913.16
2023-03-04T08:05:27.933Z,94911.97
2023-03-04T08:07:54.325Z,94908.94
2023-03-04T08:10:20.667Z,94901.23
2023-03-04T08:12:47.068Z,94908.48
2023-03-04T08:15:13.399Z,94906.37
2023-03-04T08:17:39.791Z,94912.70
2023-03-04T08:20:06.131Z,94913.62
2023-03-04T08:22:32.523Z,94902.87
2023-03-04T08:24:58.861Z,94903.21
2023-03-04T08:27:25.249Z,94902.87
2023-03-04T08:29:51.600Z,94905.32
2023-03-04T08:32:18.042Z,94899.25
2023-03-04T08:34:44.326Z,94899.63
2023-03-04T08:37:10.703Z,94898.80
2023-03-04T08:39:37.048Z,94898.20
2023-03-04T08:42:03.432Z,94893.43
2023-03-04T08:44:29.787Z,94892.14
2023-03-04T08:46:57.876Z,94889.58
2023-03-04T08:49:22.509Z,94889.11
2023-03-04T08:51:48.935Z,94888.75
2023-03-04T08:54:15.273Z,94883.38
2023-03-04T08:56:41.713Z,94888.16
2023-03-04T08:59:08.055Z,94890.73
2023-03-04T09:01:34.444Z,94883.84
2023-03-04T09:04:00.821Z,94878.70
2023-03-04T09:06:27.228Z,94880.72
2023-03-04T09:08:53.593Z,94875.67
2023-03-04T09:11:19.959Z,94879.52
2023-03-04T09:13:46.343Z,94876.49
2023-03-04T09:16:12.767Z,94871.81
2023-03-04T09:18:39.021Z,94873.80
2023-03-04T09:21:05.397Z,94867.95
2023-03-04T09:23:31.746Z,94865.03
2023-03-04T09:25:58.139Z,94866.31
2023-03-04T09:28:24.485Z,94862.45
2023-03-04T09:30:50.871Z,94860.25
2023-03-04T09:33:18.432Z,94864.56
2023-03-04T09:35:43.640Z,94861.53
2023-03-04T09:38:09.935Z,94860.15
2023-03-04T09:40:36.339Z,94852.53
2023-03-04T09:43:02.688Z,94853.95
2023-03-04T09:45:29.072Z,94857.91
2023-03-04T09:47:55.453Z,94851.84
2023-03-04T09:50:21.791Z,94851.84
2023-03-04T09:52:48.128Z,94850.20
2023-03-04T09:55:14.512Z,94849.73
2023-03-04T09:57:40.864Z,94845.06
2023-03-04T10:00:07.240Z,94849.73
2023-03-04T10:02:33.572Z,94848.09
2023-03-04T10:05:01.735Z,94841.80
2023-03-04T10:07:26.303Z,94839.81
2023-03-04T10:09:52.692Z,94841.80
2023-03-04T10:12:19.022Z,94835.14
2023-03-04T10:14:45.419Z,94829.30
2023-03-04T10:17:11.763Z,94834.91
2023-03-04T10:19:38.141Z,94828.81
2023-03-04T10:22:04.477Z,94827.89
2023-03-04T10:24:30.864Z,94819.03
2023-03-04T10:26:57.205Z,94822.65
2023-03-04T10:29:23.586Z,94817.97
2023-03-04T10:31:49.978Z,94814.67
2023-03-04T10:34:16.344Z,94812.37
2023-03-04T10:36:44.056Z,94809.80
2023-03-04T10:39:09.047Z,94809.20
2023-03-04T10:41:35.453Z,94804.88
2023-03-04T10:44:01.773Z,94786.17
2023-03-04T10:46:28.120Z,94797.86
2023-03-04T10:48:54.499Z,94796.48
2023-03-04T10:51:20.842Z,94787.28
2023-03-04T10:53:47.221Z,94788.56
2023-03-04T10:56:13.562Z,94785.06
2023-03-04T10:58:39.945Z,94782.95
2023-03-04T11:01:06.358Z,94773.37
2023-03-04T11:03:32.756Z,94766.48
2023-03-04T11:05:59.064Z,94761.33
2023-03-04T11:08:25.456Z,94765.19
2023-03-04T11:10:51.805Z,94759.13
2023-03-04T11:13:18.191Z,94756.06
2023-03-04T11:15:44.523Z,94753.61
2023-03-04T11:18:10.904Z,94745.67
2023-03-04T11:20:37.242Z,94741.35
2023-03-04T11:23:04.588Z,94737.72
2023-03-04T11:25:29.976Z,94731.19
2023-03-04T11:27:56.380Z,94733.27
2023-03-04T11:30:22.719Z,94728.83
2023-03-04T11:32:49.139Z,94722.06
2023-03-04T11:35:16.781Z,94719.02
2023-03-04T11:37:41.878Z,94718.80
2023-03-04T11:40:08.209Z,94717.60
2023-03-04T11:42:34.600Z,94714.10
2023-03-04T11:45:00.956Z,94710.60
2023-03-04T11:47:27.347Z,94710.01
2023-03-04T11:49:53.686Z,94705.91
2023-03-04T11:52:20.075Z,94701.59
2023-03-04T11:54:46.413Z,94695.86
2023-03-04T11:57:12.926Z,94694.81
2023-03-04T11:59:39.160Z,94689.55
2023-03-04T12:02:05.547Z,94691.52
2023-03-04T12:04:31.974Z,94681.84
2023-03-04T12:06:58.271Z,94684.98
2023-03-04T12:09:24.643Z,94683.48
2023-03-04T12:11:51.028Z,94683.48
2023-03-04T12:14:20.305Z,94682.06
2023-03-04T12:16:43.755Z,94678.09
2023-03-04T12:19:10.104Z,94673.28
2023-03-04T12:21:36.486Z,94671.45
2023-03-04T12:24:02.828Z,94669.55
2023-03-04T12:26:29.209Z,94661.27
2023-03-04T12:28:55.551Z,94665.48
2023-03-04T12:31:22.399Z,94667.09
2023-03-04T12:33:48.324Z,94663.61
2023-03-04T12:36:14.688Z,94662.09
2023-03-04T12:38:41.028Z,94657.05
2023-03-04T12:41:07.419Z,94657.52
2023-03-04T12:43:36.009Z,94656.01
2023-03-04T12:46:00.147Z,94654.15
2023-03-04T12:48:26.490Z,94651.33
2023-03-04T12:50:52.875Z,94645.39
2023-03-04T12:53:19.258Z,94644.19
2023-03-04T12:55:45.640Z,94638.72
2023-03-04T12:58:11.996Z,94633.22
2023-03-04T13:00:38.383Z,94629.83
2023-03-04T13:03:04.840Z,94625.51
2023-03-04T13:05:31.131Z,94623.86
2023-03-04T13:07:57.476Z,94624.00
2023-03-04T13:10:23.865Z,94624.00
2023-03-04T13:12:50.212Z,94620.00
2023-03-04T13:15:16.594Z,94618.97
2023-03-04T13:17:43.974Z,94612.53
2023-03-04T13:20:11.024Z,94609.28
2023-03-04T13:22:35.706Z,94612.67
2023-03-04T13:25:02.077Z,94610.68
2023-03-04T13:27:28.413Z,94606.71
2023-03-04T13:29:56.419Z,94600.75
2023-03-04T13:32:21.177Z,94606.11
2023-03-04T13:34:47.548Z,94609.61
2023-03-04T13:37:15.195Z,94602.61
2023-03-04T13:39:41.541Z,94598.75
2023-03-04T13:42:06.688Z,94602.61
2023-03-04T13:44:33.079Z,94594.43
2023-03-04T13:46:59.429Z,94592.90
2023-03-04T13:49:25.811Z,94591.72
2023-03-04T13:51:52.148Z,94590.66
2023-03-04T13:54:18.540Z,94590.30
2023-03-04T13:56:44.908Z,94592.27
2023-03-04T13:59:11.293Z,94586.33
2023-03-04T14:01:37.633Z,94585.73
2023-03-04T14:04:04.062Z,94581.41
2023-03-04T14:06:30.364Z,94575.80
2023-03-04T14:08:56.777Z,94571.94
2023-03-04T14:11:23.122Z,94573.55
2023-03-04T14:13:49.532Z,94573.94
2023-03-04T14:16:15.899Z,94572.44
2023-03-04T14:18:43.496Z,94567.16
2023-03-04T14:21:08.600Z,94562.55
2023-03-04T14:23:34.981Z,94558.37
2023-03-04T14:26:01.316Z,94558.51
2023-03-04T14:28:27.718Z,94553.66
2023-03-04T14:30:54.085Z,94553.25
2023-03-04T14:33:20.447Z,94552.47
2023-03-04T14:35:46.917Z,94553.76
2023-03-04T14:38:13.187Z,94551.05
2023-03-04T14:40:39.549Z,94552.47
2023-03-04T14:43:05.889Z,94551.36
2023-03-04T14:45:32.338Z,94549.51
2023-03-04T14:47:58.613Z,94546.44
2023-03-04T14:50:25.010Z,94542.94
2023-03-04T14:52:51.344Z,94542.94
2023-03-04T14:55:17.733Z,94534.65
2023-03-04T14:57:44.088Z,94533.72
2023-03-04T15:00:10.458Z,94528.83
2023-03-04T15:02:36.798Z,94532.79
2023-03-04T15:05:03.185Z,94528.72
2023-03-04T15:07:29.518Z,94529.15
2023-03-04T15:09:55.936Z,94528.50
2023-03-04T15:12:22.252Z,94527.33
2023-03-04T15:14:48.643Z,94529.64
2023-03-04T15:17:15.040Z,94524.86
2023-03-04T15:19:41.396Z,94521.35
2023-03-04T15:22:07.754Z,94519.10
2023-03-04T15:24:34.128Z,94520.28
2023-03-04T15:27:00.499Z,94518.64
2023-03-04T15:29:26.891Z,94514.06
2023-03-04T15:31:53.232Z,94515.34
2023-03-04T15:34:19.634Z,94507.98
2023-03-04T15:36:45.980Z,94505.41
2023-03-04T15:39:12.368Z,94498.83
2023-03-04T15:41:38.697Z,94498.37
2023-03-04T15:44:05.086Z,94494.75
2023-03-04T15:46:31.433Z,94491.83
2023-03-04T15:48:57.823Z,94492.29
2023-03-04T15:51:24.168Z,94485.75
2023-03-04T15:53:50.552Z,94489.61
2023-03-04T15:56:16.890Z,94481.06
2023-03-04T15:58:43.302Z,94478.61
2023-03-04T16:01:09.653Z,94484.57
2023-03-04T16:03:36.003Z,94484.78
2023-03-04T16:06:02.396Z,94483.97
2023-03-04T16:08:28.727Z,94489.92
2023-03-04T16:10:55.071Z,94491.68
2023-03-04T16:13:21.461Z,94492.50
2023-03-04T16:15:47.866Z,94485.61
2023-03-04T16:18:14.200Z,94492.50
2023-03-04T16:20:40.548Z,94490.39
2023-03-04T16:23:06.925Z,94489.61
2023-03-04T16:25:33.262Z,94492.97
2023-03-04T16:27:59.653Z,94489.83
2023-03-04T16:30:25.989Z,94487.03
2023-03-04T16:32:52.395Z,94497.08
2023-03-04T16:35:18.846Z,94491.47
2023-03-04T16:37:45.125Z,94490.54
2023-03-04T16:40:11.468Z,94496.97
2023-03-04T16:42:37.862Z,94499.66
2023-03-04T16:45:04.206Z,94502.94
2023-03-04T16:47:30.589Z,94505.98
2023-03-04T16:49:56.934Z,94504.22
2023-03-04T16:52:23.309Z,94502.58
2023-03-04T16:54:49.648Z,94502.23
2023-03-04T16:57:16.049Z,94496.16
2023-03-04T16:59:42.382Z,94495.80
2023-03-04T17:02:08.772Z,94491.47
2023-03-04T17:04:35.128Z,94491.12
2023-03-04T17:07:01.494Z,94499.19
2023-03-04T17:09:27.861Z,94498.37
2023-03-04T17:11:54.246Z,94498.83
2023-03-04T17:14:20.593Z,94495.33
2023-03-04T17:16:46.977Z,94494.52
2023-03-04T17:19:13.323Z,94500.94
2023-03-04T17:21:39.726Z,94498.37
2023-03-04T17:24:06.075Z,94503.98
2023-03-04T17:26:32.457Z,94504.80
2023-03-04T17:28:58.795Z,94507.38
2023-03-04T17:31:25.240Z,94507.38
2023-03-04T17:33:51.516Z,94510.91
2023-03-04T17:36:17.925Z,94514.16
2023-03-04T17:38:44.263Z,94512.05
2023-03-04T17:41:10.680Z,94518.02
2023-03-04T17:43:37.032Z,94508.20
2023-03-04T17:46:03.413Z,94511.23
2023-03-04T17:48:29.750Z,94514.16
2023-03-04T17:50:56.143Z,94516.73
2023-03-04T17:53:22.479Z,94515.55
2023-03-04T17:55:48.871Z,94521.52
2023-03-04T17:58:15.219Z,94518.84
2023-03-04T18:00:41.645Z,94511.70
2023-03-04T18:03:07.950Z,94511.70
2023-03-04T18:05:34.380Z,94511.02
2023-03-04T18:08:00.703Z,94519.09
2023-03-04T18:10:27.098Z,94518.27
2023-03-04T18:12:53.428Z,94514.20
2023-03-04T18:15:19.849Z,94520.17
2023-03-04T18:17:46.188Z,94519.45
2023-03-04T18:20:12.580Z,94519.45
2023-03-04T18:22:38.923Z,94518.17
2023-03-04T18:25:05.350Z,94522.96
2023-03-04T18:27:31.689Z,94517.14
2023-03-04T18:29:58.077Z,94515.03
2023-03-04T18:32:24.449Z,94518.21
2023-03-04T18:34:50.809Z,94517.28
2023-03-04T18:37:17.147Z,94516.45
2023-03-04T18:39:43.546Z,94517.75
2023-03-04T18:42:09.896Z,94515.28
2023-03-04T18:44:36.277Z,94521.25
2023-03-04T18:47:02.613Z,94513.67
2023-03-04T18:49:29.012Z,94511.22
2023-03-04T18:51:55.375Z,94514.00
2023-03-04T18:54:21.756Z,94509.11
2023-03-04T18:56:48.106Z,94507.96
2023-03-04T18:59:14.568Z,94510.39
2023-03-04T19:01:40.943Z,94514.39
2023-03-04T19:04:07.363Z,94516.96
2023-03-04T19:06:33.688Z,94517.54
2023-03-04T19:09:00.060Z,94518.83
2023-03-04T19:11:26.407Z,94511.11
2023-03-04T19:13:52.801Z,94513.68
2023-03-04T19:16:19.196Z,94518.97
2023-03-04T19:18:45.526Z,94521.86
2023-03-04T19:21:11.872Z,94520.72
2023-03-04T19:23:38.252Z,94516.97
2023-03-04T19:26:04.638Z,94515.69
2023-03-04T19:28:31.026Z,94513.72
2023-03-04T19:30:57.429Z,94515.36
2023-03-04T19:33:23.782Z,94519.69
2023-03-04T19:35:50.186Z,94520.15
2023-03-04T19:38:16.549Z,94522.25
2023-03-04T19:40:42.875Z,94523.19
2023-03-04T19:43:09.271Z,94523.66
2023-03-04T19:45:35.629Z,94522.51
2023-03-04T19:48:01.997Z,94519.58
2023-03-04T19:50:28.354Z,94531.05
2023-03-04T19:52:54.729Z,94526.69
2023-03-04T19:55:21.073Z,94527.30
2023-03-04T19:57:47.456Z,94526.36
2023-03-04T20:00:14.775Z,94530.33
2023-03-04T20:02:40.193Z,94526.61
2023-03-04T20:05:06.549Z,94525.66
2023-03-04T20:07:32.943Z,94523.22
2023-03-04T20:09:59.280Z,94524.97
2023-03-04T20:12:25.680Z,94524.97
2023-03-04T20:14:52.004Z,94520.76
2023-03-04T20:17:19.590Z,94514.33
2023-03-04T20:19:44.737Z,94517.37
2023-03-04T20:22:11.230Z,94517.37
2023-03-04T20:24:37.581Z,94516.90
2023-03-04T20:27:04.033Z,94520.90
2023-03-04T20:29:30.356Z,94519.61
2023-03-04T20:31:56.752Z,94498.65
2023-03-04T20:34:23.070Z,94527.44
2023-03-04T20:36:49.491Z,94528.94
2023-03-04T20:39:28.219Z,94530.36
2023-03-04T20:41:42.210Z,94530.97
2023-03-04T20:44:08.553Z,94526.16
2023-03-04T20:46:34.973Z,94527.11
2023-03-04T20:49:01.289Z,94526.29
2023-03-04T20:51:27.661Z,94526.29
2023-03-04T20:53:54.014Z,94527.90
2023-03-04T20:56:20.392Z,94527.33
2023-03-04T20:58:46.730Z,94521.26
2023-03-04T21:01:13.131Z,94396.89
2023-03-04T21:03:39.446Z,94517.05
2023-03-04T21:06:05.832Z,94523.47
2023-03-04T21:08:32.162Z,94523.47
2023-03-04T21:10:58.561Z,94518.83
2023-03-04T21:13:24.911Z,94515.90
2023-03-04T21:15:51.338Z,94516.72
2023-03-04T21:18:17.672Z,94513.79
2023-03-04T21:20:44.061Z,94511.22
2023-03-04T21:23:10.416Z,94515.08
2023-03-04T21:25:36.812Z,94513.79
2023-03-04T21:28:03.236Z,94518.11
2023-03-04T21:30:29.644Z,94517.30
2023-03-04T21:32:56.029Z,94512.15
2023-03-04T21:35:22.460Z,94512.64
2023-03-04T21:37:48.742Z,94507.97
2023-03-04T21:40:15.173Z,94505.86
2023-03-04T21:42:41.518Z,94499.55
2023-03-04T21:45:07.903Z,94499.08
2023-03-04T21:47:34.244Z,94503.30
2023-03-04T21:50:00.649Z,94507.97
2023-03-04T21:52:27.026Z,94495.69
2023-03-04T21:54:53.429Z,94496.19
2023-03-04T21:57:19.794Z,94494.55
2023-03-04T21:59:46.174Z,94485.08
2023-03-04T22:02:12.570Z,94483.44
2023-03-04T22:04:38.928Z,94484.73
2023-03-04T22:07:05.261Z,94489.87
2023-03-04T22:09:31.647Z,94488.58
2023-03-04T22:11:58.012Z,94491.16
2023-03-04T22:14:24.419Z,94494.66
2023-03-04T22:16:55.765Z,94489.05
2023-03-04T22:19:17.162Z,94495.94
2023-03-04T22:21:43.496Z,94494.19
2023-03-04T22:24:09.916Z,94493.72
2023-03-04T22:26:36.258Z,94488.69
2023-03-04T22:29:02.688Z,94486.62
2023-03-04T22:31:29.097Z,94489.97
2023-03-04T22:33:57.955Z,94487.90
2023-03-04T22:36:24.295Z,94484.51
2023-03-04T22:38:50.680Z,94476.44
2023-03-04T22:41:17.023Z,94481.12
2023-03-04T22:43:43.433Z,94482.41
2023-03-04T22:46:09.833Z,94479.94
2023-03-04T22:48:36.159Z,94483.80
2023-03-04T22:51:02.502Z,94478.66
2023-03-04T22:53:28.891Z,94479.94
2023-03-04T22:55:56.176Z,94478.80
2023-03-04T22:58:21.596Z,94484.30
2023-03-04T23:00:47.987Z,94477.52
2023-03-04T23:03:14.722Z,94472.84
2023-03-04T23:05:41.083Z,94468.05
2023-03-04T23:08:07.458Z,94470.27
2023-03-04T23:10:33.807Z,94469.41
2023-03-04T23:13:00.179Z,94466.84
2023-03-04T23:15:26.535Z,94462.16
2023-03-04T23:17:52.928Z,94469.88
2023-03-04T23:20:19.278Z,94460.87
2023-03-04T23:22:45.730Z,94467.77
2023-03-04T23:25:12.094Z,94463.91
2023-03-04T23:27:38.504Z,94464.88
2023-03-04T23:30:04.813Z,94461.02
2023-03-04T23:32:31.270Z,94457.16
2023-03-04T23:34:57.540Z,94455.88
2023-03-04T23:37:23.928Z,94449.92
2023-03-04T23:39:50.259Z,94450.84
2023-03-04T23:42:16.655Z,94449.09
2023-03-04T23:44:42.982Z,94449.23
2023-03-04T23:47:09.364Z,94445.70
2023-03-04T23:49:35.696Z,94445.38
2023-03-04T23:52:02.091Z,94437.17
2023-03-04T23:54:28.429Z,94447.45
2023-03-04T23:56:54.821Z,94450.03
2023-03-04T23:59:21.156Z,94446.31
